Carthage, Illinois
Current Conditions -  °F | °C
As of 8:55 AM on Monday 24 Nov 2014 (Local Time) from KEOK Reporting Station
Overcast Overcast  
Wind Chill: 20°   Ceiling: 2300
Heat Index: 32°   Visibility: 10mi
Dew Point: 27°   Wind: 20mph
Humidity: 80%   Direction: 270°W
Pressure: 29.51"   Gusts: 30mph
Location:  40.42°N, 91.14°W
Report Text: KEOK 241455Z AUTO 27017G26KT 10SM OVC023 M00/M03 A2951 RMK AO2
Loading
Personal Weather Stations






























Interactive Weather Map New forecast layout! Learn more

10-Day Weather Forecast

Advertisements
Track Severe Weather on mobile